Time;durP1;ratioP1;P1;durP2;ratioP2;P2;SDS_P1;SDS_P2;PMS_P1;PMS_P2;Temp;Humidity;BMP_temperature;BMP_pressure;BME280_temperature;BME280_humidity;BME280_pressure;Samples;Min_cycle;Max_cycle;Signal;HPM_P1;HPM_P2
2023/03/18 00:01:12;;;;;;;6.20;4.80;;;;;;;;;;105704;1257;60345;-48
2023/03/18 00:03:40;;;;;;;6.10;4.60;;;;;;;;;;105635;1256;62119;-45
2023/03/18 00:06:12;;;;;;;5.70;4.40;;;;;;;;;;105477;1260;61062;-46
2023/03/18 00:08:41;;;;;;;5.00;4.50;;;;;;;;;;105414;1256;60432;-47
2023/03/18 00:11:12;;;;;;;6.40;4.50;;;;;;;;;;105472;1256;60444;-47
2023/03/18 00:13:41;;;;;;;5.10;4.30;;;;;;;;;;105630;1257;60431;-47
2023/03/18 00:16:10;;;;;;;8.10;5.60;;;;;;;;;;106613;1255;62166;-46
2023/03/18 00:18:41;;;;;;;6.00;4.70;;;;;;;;;;105331;1259;60431;-47
2023/03/18 00:21:09;;;;;;;5.00;4.50;;;;;;;;;;105934;1260;60763;-46
2023/03/18 00:23:40;;;;;;;5.90;4.40;;;;;;;;;;105510;1256;60436;-47
2023/03/18 00:26:08;;;;;;;5.10;4.00;;;;;;;;;;105379;1256;60368;-45
2023/03/18 00:28:37;;;;;;;4.60;4.20;;;;;;;;;;105500;1256;62210;-46
2023/03/18 00:31:07;;;;;;;5.30;4.10;;;;;;;;;;105336;1259;60342;-47
2023/03/18 00:33:36;;;;;;;5.30;4.10;;;;;;;;;;105824;1259;60834;-47
2023/03/18 00:36:08;;;;;;;4.70;4.30;;;;;;;;;;106165;1256;60348;-46
2023/03/18 00:38:41;;;;;;;3.90;3.50;;;;;;;;;;105610;1256;60446;-46
2023/03/18 00:41:14;;;;;;;4.90;3.40;;;;;;;;;;105424;1257;62264;-47
2023/03/18 00:43:53;;;;;;;4.30;3.50;;;;;;;;;;106574;1255;60571;-46
2023/03/18 00:46:25;;;;;;;5.80;4.10;;;;;;;;;;105682;1262;61109;-47
2023/03/18 00:48:55;;;;;;;5.30;4.60;;;;;;;;;;105342;1259;60505;-48
2023/03/18 00:51:24;;;;;;;3.80;3.50;;;;;;;;;;105388;1257;60851;-48
2023/03/18 00:53:54;;;;;;;6.50;4.40;;;;;;;;;;105375;1259;62115;-47
2023/03/18 00:56:22;;;;;;;6.80;5.00;;;;;;;;;;105303;1259;60829;-49
2023/03/18 00:58:51;;;;;;;5.30;4.60;;;;;;;;;;105563;1256;60700;-49
2023/03/18 01:01:19;;;;;;;7.80;5.50;;;;;;;;;;105082;1261;60520;-47
2023/03/18 01:03:48;;;;;;;5.60;5.00;;;;;;;;;;105186;1256;60373;-47
2023/03/18 01:06:21;;;;;;;7.60;5.50;;;;;;;;;;106672;1256;62681;-47
2023/03/18 01:08:50;;;;;;;7.70;5.60;;;;;;;;;;108882;1256;58647;-48
2023/03/18 01:11:18;;;;;;;5.40;4.80;;;;;;;;;;108817;1256;59497;-49
2023/03/18 01:13:47;;;;;;;5.70;4.70;;;;;;;;;;108858;1260;58103;-48
2023/03/18 01:16:15;;;;;;;6.20;5.50;;;;;;;;;;108888;1256;58433;-48
2023/03/18 01:18:43;;;;;;;7.70;5.40;;;;;;;;;;108881;1256;62444;-47
2023/03/18 01:21:11;;;;;;;7.80;5.40;;;;;;;;;;108841;1256;58322;-47
2023/03/18 01:23:45;;;;;;;7.50;5.50;;;;;;;;;;108789;1257;60801;-48
2023/03/18 01:26:13;;;;;;;6.10;5.60;;;;;;;;;;108873;1256;58517;-48
2023/03/18 01:28:42;;;;;;;6.50;5.40;;;;;;;;;;108802;1256;58190;-48
2023/03/18 01:31:11;;;;;;;8.60;5.30;;;;;;;;;;108769;1256;61905;-47
2023/03/18 01:33:40;;;;;;;8.40;5.30;;;;;;;;;;108910;1256;59477;-47
2023/03/18 01:36:08;;;;;;;6.70;5.30;;;;;;;;;;108841;1256;60964;-48
2023/03/18 01:38:36;;;;;;;9.10;5.60;;;;;;;;;;108832;1256;58280;-47
2023/03/18 01:41:10;;;;;;;14.20;6.80;;;;;;;;;;108864;1256;58781;-47
2023/03/18 01:43:39;;;;;;;10.50;5.90;;;;;;;;;;108923;1256;62078;-48
2023/03/18 01:46:43;;;;;;;7.40;6.10;;;;;;;;;;108697;1256;58549;-48
2023/03/18 01:49:17;;;;;;;6.50;4.90;;;;;;;;;;108697;1256;59553;-48
2023/03/18 01:51:51;;;;;;;5.50;4.80;;;;;;;;;;108847;1260;58225;-47
2023/03/18 01:54:19;;;;;;;6.90;5.40;;;;;;;;;;108914;1256;58137;-48
2023/03/18 01:56:47;;;;;;;6.00;5.40;;;;;;;;;;108781;1256;60763;-48
2023/03/18 01:59:15;;;;;;;6.60;5.20;;;;;;;;;;108802;1256;58302;-50
2023/03/18 02:01:43;;;;;;;8.50;6.00;;;;;;;;;;106038;1258;60671;-49
2023/03/18 02:04:12;;;;;;;6.90;4.70;;;;;;;;;;105407;1256;60445;-51
2023/03/18 02:06:43;;;;;;;6.60;4.80;;;;;;;;;;106471;1256;60432;-46
2023/03/18 02:09:11;;;;;;;5.30;4.40;;;;;;;;;;105099;1257;62123;-46
2023/03/18 02:11:42;;;;;;;6.70;4.90;;;;;;;;;;105223;1260;60416;-48
2023/03/18 02:14:12;;;;;;;4.50;4.10;;;;;;;;;;105565;1256;60853;-48
2023/03/18 02:16:44;;;;;;;5.60;4.10;;;;;;;;;;105272;1261;60888;-47
2023/03/18 02:19:32;;;;;;;5.20;4.70;;;;;;;;;;105182;1262;60345;-49
2023/03/18 02:22:01;;;;;;;5.90;4.90;;;;;;;;;;105374;1258;62332;-46
2023/03/18 02:24:35;;;;;;;7.30;4.50;;;;;;;;;;106384;1263;60306;-43
2023/03/18 02:27:23;;;;;;;6.40;3.70;;;;;;;;;;105839;1257;60401;-46
2023/03/18 02:29:56;;;;;;;5.70;4.80;;;;;;;;;;105210;1261;60338;-46
2023/03/18 02:32:29;;;;;;;5.90;4.10;;;;;;;;;;105337;1260;60391;-47
2023/03/18 02:35:03;;;;;;;4.00;3.40;;;;;;;;;;105492;1260;62179;-47
2023/03/18 02:37:32;;;;;;;5.20;4.70;;;;;;;;;;105507;1256;60422;-47
2023/03/18 02:40:16;;;;;;;5.10;4.20;;;;;;;;;;105321;1260;61433;-47
2023/03/18 02:42:44;;;;;;;4.10;3.70;;;;;;;;;;105576;1261;60454;-48
2023/03/18 02:45:36;;;;;;;5.80;4.00;;;;;;;;;;105376;1256;60410;-48
2023/03/18 02:48:14;;;;;;;7.30;4.70;;;;;;;;;;105152;1261;62189;-47
2023/03/18 02:50:42;;;;;;;4.60;4.20;;;;;;;;;;105534;1260;60387;-50
2023/03/18 02:53:13;;;;;;;6.30;3.60;;;;;;;;;;105137;1256;60661;-48
2023/03/18 02:55:41;;;;;;;3.90;3.50;;;;;;;;;;105955;1256;60442;-48
2023/03/18 02:58:09;;;;;;;5.80;4.50;;;;;;;;;;105286;1259;60432;-48
2023/03/18 03:00:37;;;;;;;6.00;5.00;;;;;;;;;;105951;1259;63357;-47
2023/03/18 03:03:05;;;;;;;4.50;3.40;;;;;;;;;;105452;1259;60729;-46
2023/03/18 03:05:37;;;;;;;4.90;3.70;;;;;;;;;;105540;1256;60769;-48
2023/03/18 03:08:06;;;;;;;3.80;3.20;;;;;;;;;;105390;1259;60336;-47
2023/03/18 03:10:36;;;;;;;5.40;4.40;;;;;;;;;;105589;1256;60439;-48
2023/03/18 03:13:08;;;;;;;4.20;3.20;;;;;;;;;;105819;1256;62575;-47
2023/03/18 03:15:37;;;;;;;3.80;3.40;;;;;;;;;;105311;1262;60418;-47
2023/03/18 03:18:06;;;;;;;3.60;3.20;;;;;;;;;;105328;1256;60648;-47
2023/03/18 03:20:36;;;;;;;5.10;3.60;;;;;;;;;;105268;1256;60367;-47
2023/03/18 03:23:05;;;;;;;3.30;2.80;;;;;;;;;;105226;1256;60443;-50
2023/03/18 03:25:33;;;;;;;5.40;3.20;;;;;;;;;;105219;1256;61133;-47
2023/03/18 03:28:02;;;;;;;7.10;4.60;;;;;;;;;;105594;1257;60521;-48
2023/03/18 03:30:30;;;;;;;8.00;5.10;;;;;;;;;;106240;1255;60482;-48
2023/03/18 03:33:01;;;;;;;7.50;5.60;;;;;;;;;;105362;1257;60557;-49
2023/03/18 03:35:29;;;;;;;6.50;5.30;;;;;;;;;;105550;1258;60397;-48
2023/03/18 03:37:58;;;;;;;6.30;5.60;;;;;;;;;;105616;1256;62128;-48
2023/03/18 03:40:26;;;;;;;5.40;4.40;;;;;;;;;;106233;1259;60442;-49
2023/03/18 03:42:54;;;;;;;5.90;4.10;;;;;;;;;;105371;1256;60871;-49
2023/03/18 03:45:22;;;;;;;4.90;4.40;;;;;;;;;;105302;1261;60391;-48
2023/03/18 03:47:53;;;;;;;8.90;4.20;;;;;;;;;;105529;1256;60365;-48
2023/03/18 03:50:25;;;;;;;4.50;4.10;;;;;;;;;;105402;1256;62003;-48
2023/03/18 03:52:53;;;;;;;5.90;4.40;;;;;;;;;;105326;1259;60316;-48
2023/03/18 03:55:21;;;;;;;7.60;4.40;;;;;;;;;;105308;1256;60583;-48
2023/03/18 03:57:50;;;;;;;5.20;4.00;;;;;;;;;;105345;1257;60560;-48
2023/03/18 04:00:19;;;;;;;4.40;3.50;;;;;;;;;;105640;1256;60514;-48
2023/03/18 04:02:48;;;;;;;4.90;4.40;;;;;;;;;;105375;1261;61909;-49
2023/03/18 04:05:18;;;;;;;3.70;3.10;;;;;;;;;;107522;1255;58388;-49
2023/03/18 04:07:46;;;;;;;7.20;5.00;;;;;;;;;;105371;1256;60797;-48
2023/03/18 04:10:16;;;;;;;7.70;3.50;;;;;;;;;;105735;1259;60509;-48
2023/03/18 04:12:46;;;;;;;6.50;3.80;;;;;;;;;;105342;1256;61005;-48
2023/03/18 04:15:17;;;;;;;6.60;3.90;;;;;;;;;;105060;1257;294240;-48
2023/03/18 04:20:12;;;;;;;5.60;3.30;;;;;;;;;;102652;1289;601927;-48
2023/03/18 04:22:43;;;;;;;7.60;3.00;;;;;;;;;;108556;1264;56775;-49
2023/03/18 04:25:11;;;;;;;7.80;4.10;;;;;;;;;;108388;1264;57590;-49
2023/03/18 04:27:40;;;;;;;5.10;2.40;;;;;;;;;;108483;1263;59450;-47
2023/03/18 04:30:10;;;;;;;4.40;2.90;;;;;;;;;;108507;1264;56933;-47
2023/03/18 04:32:49;;;;;;;5.50;2.90;;;;;;;;;;108356;1268;177728;-47
2023/03/18 04:35:22;;;;;;;6.20;2.60;;;;;;;;;;108677;1260;57713;-47
2023/03/18 04:37:51;;;;;;;6.40;3.70;;;;;;;;;;108509;1261;57069;-47
2023/03/18 04:40:19;;;;;;;5.30;3.60;;;;;;;;;;108654;1260;59326;-47
2023/03/18 04:42:47;;;;;;;5.20;2.40;;;;;;;;;;108733;1260;56759;-47
2023/03/18 04:45:16;;;;;;;5.40;2.60;;;;;;;;;;107441;1262;60871;-49
2023/03/18 04:47:44;;;;;;;3.80;2.60;;;;;;;;;;108630;1260;57951;-50
2023/03/18 04:50:13;;;;;;;4.50;1.90;;;;;;;;;;108756;1260;57766;-50
2023/03/18 04:52:41;;;;;;;4.10;2.20;;;;;;;;;;108640;1260;61259;-50
2023/03/18 04:55:10;;;;;;;2.90;2.50;;;;;;;;;;106410;1263;59760;-48
2023/03/18 04:57:41;;;;;;;4.20;2.70;;;;;;;;;;108724;1260;60935;-50
2023/03/18 05:00:13;;;;;;;3.90;2.80;;;;;;;;;;107486;1261;59205;-49
2023/03/18 05:02:42;;;;;;;6.80;2.50;;;;;;;;;;106304;1261;59570;-46
2023/03/18 05:05:10;;;;;;;5.20;2.50;;;;;;;;;;105879;1261;61303;-49
2023/03/18 05:07:42;;;;;;;5.40;3.10;;;;;;;;;;105592;1260;59940;-48
2023/03/18 05:10:12;;;;;;;6.60;2.40;;;;;;;;;;104812;1260;60856;-47
2023/03/18 05:12:42;;;;;;;8.50;4.60;;;;;;;;;;104779;1266;59519;-48
2023/03/18 05:15:12;;;;;;;7.40;3.00;;;;;;;;;;104936;1261;59631;-48
2023/03/18 05:17:45;;;;;;;5.00;2.60;;;;;;;;;;105351;1264;61505;-48
2023/03/18 05:20:14;;;;;;;3.60;2.20;;;;;;;;;;104847;1266;59561;-47
2023/03/18 05:22:43;;;;;;;8.50;2.30;;;;;;;;;;105182;1266;60946;-47
2023/03/18 05:25:19;;;;;;;3.40;1.90;;;;;;;;;;105491;1266;59342;-48
2023/03/18 05:27:48;;;;;;;4.50;2.10;;;;;;;;;;105631;1260;59775;-48
2023/03/18 05:30:23;;;;;;;2.00;1.40;;;;;;;;;;104944;1261;61290;-47
2023/03/18 05:32:57;;;;;;;5.80;2.10;;;;;;;;;;105828;1264;59637;-49
2023/03/18 05:35:41;;;;;;;5.30;1.90;;;;;;;;;;104895;1266;60865;-47
2023/03/18 05:38:09;;;;;;;4.60;2.20;;;;;;;;;;105551;1263;59634;-49
2023/03/18 05:40:38;;;;;;;3.10;1.70;;;;;;;;;;105053;1260;59617;-47
2023/03/18 05:43:15;;;;;;;2.80;1.90;;;;;;;;;;104838;1261;61452;-48
2023/03/18 05:45:50;;;;;;;5.00;1.80;;;;;;;;;;104935;1260;59595;-48
2023/03/18 05:48:21;;;;;;;6.60;2.60;;;;;;;;;;105975;1260;60495;-49
2023/03/18 05:50:57;;;;;;;6.40;1.90;;;;;;;;;;104900;1261;59671;-48
2023/03/18 05:53:27;;;;;;;2.50;1.70;;;;;;;;;;106777;1260;61029;-48
2023/03/18 05:56:03;;;;;;;4.20;1.90;;;;;;;;;;107233;1260;61345;-47
2023/03/18 05:58:34;;;;;;;3.10;1.60;;;;;;;;;;105064;1266;59735;-48
2023/03/18 06:01:19;;;;;;;6.50;2.20;;;;;;;;;;105659;1266;60509;-48
2023/03/18 06:03:47;;;;;;;3.60;1.70;;;;;;;;;;106002;1266;59751;-47
2023/03/18 06:06:16;;;;;;;5.80;1.80;;;;;;;;;;105372;1260;59640;-47
2023/03/18 06:08:45;;;;;;;3.20;1.50;;;;;;;;;;105063;1260;61386;-49
2023/03/18 06:11:14;;;;;;;3.50;2.00;;;;;;;;;;105225;1266;59601;-49
2023/03/18 06:13:42;;;;;;;3.50;1.80;;;;;;;;;;105134;1260;60964;-50
2023/03/18 06:16:13;;;;;;;3.80;2.10;;;;;;;;;;104827;1266;60292;-46
2023/03/18 06:18:42;;;;;;;3.80;2.20;;;;;;;;;;104351;1263;59662;-48
2023/03/18 06:21:13;;;;;;;3.80;2.40;;;;;;;;;;105241;1266;61371;-48
2023/03/18 06:23:44;;;;;;;2.10;1.60;;;;;;;;;;104639;1267;59640;-50
2023/03/18 06:26:13;;;;;;;5.40;2.60;;;;;;;;;;104391;1264;60924;-48
2023/03/18 06:28:46;;;;;;;3.60;2.20;;;;;;;;;;104124;1264;59743;-47
2023/03/18 06:31:15;;;;;;;3.80;2.50;;;;;;;;;;106873;1265;59703;-46
2023/03/18 06:33:52;;;;;;;3.00;2.00;;;;;;;;;;104910;1264;61412;-45
2023/03/18 06:36:21;;;;;;;2.90;2.00;;;;;;;;;;104596;1266;60189;-47
2023/03/18 06:38:52;;;;;;;3.10;2.10;;;;;;;;;;105061;1263;60926;-47
2023/03/18 06:41:21;;;;;;;3.70;2.20;;;;;;;;;;107764;1264;59722;-49
2023/03/18 06:43:59;;;;;;;2.80;2.30;;;;;;;;;;105176;1263;59699;-46
2023/03/18 06:46:29;;;;;;;5.80;1.80;;;;;;;;;;104725;1262;61360;-49
2023/03/18 06:48:58;;;;;;;2.70;1.70;;;;;;;;;;106156;1261;59832;-51
2023/03/18 06:51:31;;;;;;;2.20;1.40;;;;;;;;;;105091;1261;60502;-46
2023/03/18 06:54:01;;;;;;;2.20;1.30;;;;;;;;;;106296;1261;59701;-49
2023/03/18 06:56:37;;;;;;;2.80;1.40;;;;;;;;;;105479;1260;59627;-47
2023/03/18 06:59:22;;;;;;;1.80;1.30;;;;;;;;;;104650;1260;61052;-49
2023/03/18 07:01:50;;;;;;;2.30;1.20;;;;;;;;;;105913;1263;59589;-48
2023/03/18 07:04:19;;;;;;;2.90;1.60;;;;;;;;;;104832;1261;60947;-48
2023/03/18 07:06:47;;;;;;;2.40;1.60;;;;;;;;;;106172;1259;59839;-49
2023/03/18 07:09:17;;;;;;;1.60;1.00;;;;;;;;;;105053;1260;59690;-47
2023/03/18 07:11:49;;;;;;;3.00;1.40;;;;;;;;;;105060;1260;60995;-47
2023/03/18 07:14:21;;;;;;;2.20;1.10;;;;;;;;;;108774;1259;58189;-49
2023/03/18 07:16:50;;;;;;;3.20;1.20;;;;;;;;;;108741;1260;59598;-50
2023/03/18 07:19:23;;;;;;;3.10;1.20;;;;;;;;;;108685;1260;57519;-50
2023/03/18 07:21:51;;;;;;;2.30;1.10;;;;;;;;;;108663;1259;57460;-47
2023/03/18 07:24:20;;;;;;;3.70;1.10;;;;;;;;;;108603;1259;61001;-49
2023/03/18 07:26:54;;;;;;;3.30;1.50;;;;;;;;;;108733;1259;57970;-47
2023/03/18 07:29:22;;;;;;;5.30;1.50;;;;;;;;;;108838;1259;59448;-50
2023/03/18 07:31:50;;;;;;;3.90;1.30;;;;;;;;;;108729;1259;57764;-50
2023/03/18 07:34:20;;;;;;;2.40;1.20;;;;;;;;;;107709;1259;59004;-46
2023/03/18 07:36:48;;;;;;;4.70;1.50;;;;;;;;;;108763;1260;62006;-47
2023/03/18 07:39:27;;;;;;;3.50;1.40;;;;;;;;;;108835;1259;57694;-46
2023/03/18 07:41:55;;;;;;;2.50;1.20;;;;;;;;;;108828;1263;60689;-46
2023/03/18 07:44:28;;;;;;;2.50;1.30;;;;;;;;;;108466;1259;58673;-47
2023/03/18 07:46:58;;;;;;;2.90;1.20;;;;;;;;;;105206;1260;59609;-46
2023/03/18 07:49:26;;;;;;;2.60;1.00;;;;;;;;;;108712;1259;61425;-48
2023/03/18 07:51:55;;;;;;;5.30;0.90;;;;;;;;;;108529;1260;58569;-48
2023/03/18 07:54:23;;;;;;;2.30;1.10;;;;;;;;;;105688;1259;60667;-47
2023/03/18 07:56:52;;;;;;;4.10;1.70;;;;;;;;;;105071;1263;59554;-46
2023/03/18 07:59:20;;;;;;;4.70;1.90;;;;;;;;;;105728;1260;59539;-48
2023/03/18 08:01:49;;;;;;;3.70;2.00;;;;;;;;;;108401;1259;61176;-49
2023/03/18 08:04:19;;;;;;;2.90;2.30;;;;;;;;;;105891;1263;59601;-47
2023/03/18 08:06:48;;;;;;;2.50;2.00;;;;;;;;;;104933;1260;61754;-46
2023/03/18 08:09:16;;;;;;;4.20;2.40;;;;;;;;;;104736;1260;59066;-45
2023/03/18 08:11:47;;;;;;;2.80;1.90;;;;;;;;;;104719;1260;59641;-47
2023/03/18 08:14:15;;;;;;;4.20;2.20;;;;;;;;;;104830;1260;61500;-48
2023/03/18 08:16:43;;;;;;;2.80;2.10;;;;;;;;;;105148;1260;59716;-49
2023/03/18 08:19:11;;;;;;;4.80;1.70;;;;;;;;;;107426;1257;60707;-46
2023/03/18 08:21:39;;;;;;;4.10;2.20;;;;;;;;;;104670;1263;59740;-48
2023/03/18 08:24:07;;;;;;;5.50;2.00;;;;;;;;;;104321;1257;61246;-47
2023/03/18 08:26:35;;;;;;;7.20;2.20;;;;;;;;;;106363;1257;61330;-46
2023/03/18 08:29:03;;;;;;;3.60;2.00;;;;;;;;;;105551;1257;59722;-47
2023/03/18 08:31:32;;;;;;;2.60;2.10;;;;;;;;;;105085;1257;60767;-46
2023/03/18 08:34:01;;;;;;;5.40;2.80;;;;;;;;;;107446;1257;60536;-48
2023/03/18 08:36:29;;;;;;;2.80;1.90;;;;;;;;;;105155;1257;60363;-47
2023/03/18 08:38:57;;;;;;;2.60;2.00;;;;;;;;;;105277;1257;61145;-48
2023/03/18 08:41:26;;;;;;;2.70;1.90;;;;;;;;;;105135;1260;60565;-50
2023/03/18 08:43:56;;;;;;;3.60;2.40;;;;;;;;;;105225;1257;60710;-45
2023/03/18 08:46:24;;;;;;;3.30;2.40;;;;;;;;;;105451;1257;60539;-48
2023/03/18 08:48:53;;;;;;;5.80;2.60;;;;;;;;;;104895;1260;60507;-50
2023/03/18 08:51:21;;;;;;;2.90;2.60;;;;;;;;;;104546;1257;61097;-46
2023/03/18 08:53:50;;;;;;;4.70;3.00;;;;;;;;;;108815;1257;58391;-48
2023/03/18 08:56:19;;;;;;;3.10;2.10;;;;;;;;;;108805;1258;61235;-48
2023/03/18 08:58:47;;;;;;;5.80;2.20;;;;;;;;;;108875;1257;58496;-48
2023/03/18 09:01:16;;;;;;;2.90;2.40;;;;;;;;;;108769;1257;58504;-45
2023/03/18 09:03:44;;;;;;;2.20;2.00;;;;;;;;;;105461;1257;61888;-47
2023/03/18 09:06:12;;;;;;;4.50;3.00;;;;;;;;;;108636;1257;59089;-49
2023/03/18 09:08:39;;;;;;;3.30;2.50;;;;;;;;;;108093;1262;60452;-46
2023/03/18 09:11:08;;;;;;;3.20;2.10;;;;;;;;;;105602;1263;60446;-47
2023/03/18 09:13:37;;;;;;;1.90;1.50;;;;;;;;;;106824;1257;60319;-48
2023/03/18 09:16:13;;;;;;;3.00;1.90;;;;;;;;;;106341;1257;62053;-49
2023/03/18 09:18:41;;;;;;;3.50;1.70;;;;;;;;;;106739;1262;59226;-49
2023/03/18 09:21:12;;;;;;;2.00;1.50;;;;;;;;;;105131;1257;61175;-49
2023/03/18 09:23:40;;;;;;;3.60;1.90;;;;;;;;;;105117;1261;60347;-49
2023/03/18 09:26:08;;;;;;;3.70;2.20;;;;;;;;;;105011;1257;60787;-48
2023/03/18 09:28:42;;;;;;;3.50;2.30;;;;;;;;;;105129;1260;62059;-47
2023/03/18 09:31:11;;;;;;;5.40;2.70;;;;;;;;;;106596;1255;60290;-47
2023/03/18 09:33:41;;;;;;;6.10;3.10;;;;;;;;;;105129;1260;60743;-46
2023/03/18 09:36:09;;;;;;;8.10;3.50;;;;;;;;;;106068;1257;60645;-47
2023/03/18 09:38:38;;;;;;;6.20;2.90;;;;;;;;;;105978;1257;60694;-46
2023/03/18 09:41:09;;;;;;;3.50;2.50;;;;;;;;;;105840;1254;62141;-49
2023/03/18 09:43:37;;;;;;;2.90;2.30;;;;;;;;;;105249;1260;60416;-46
2023/03/18 09:46:05;;;;;;;3.40;2.40;;;;;;;;;;105840;1254;60424;-46
2023/03/18 09:48:40;;;;;;;2.20;2.00;;;;;;;;;;106361;1259;60425;-47
2023/03/18 09:51:09;;;;;;;;;;;;;;;;;;105365;1259;60437;-45
2023/03/18 09:53:45;;;;;;;3.70;1.70;;;;;;;;;;105485;1257;61892;-46
2023/03/18 09:56:17;;;;;;;7.20;1.60;;;;;;;;;;105469;1254;60520;-46
2023/03/18 09:59:04;;;;;;;2.70;1.60;;;;;;;;;;105915;1254;60836;-47
2023/03/18 10:01:33;;;;;;;3.50;2.20;;;;;;;;;;105355;1253;60414;-50
2023/03/18 10:04:03;;;;;;;3.00;2.10;;;;;;;;;;105254;1257;60347;-49
2023/03/18 10:06:49;;;;;;;3.10;1.80;;;;;;;;;;105377;1253;62492;-47
2023/03/18 10:09:31;;;;;;;6.40;1.90;;;;;;;;;;106284;1254;60401;-45
2023/03/18 10:12:19;;;;;;;5.80;3.20;;;;;;;;;;109307;1252;60778;-46
2023/03/18 10:14:50;;;;;;;4.40;2.40;;;;;;;;;;109284;1253;58210;-46
2023/03/18 10:17:19;;;;;;;6.70;2.00;;;;;;;;;;109294;1253;58405;-46
2023/03/18 10:19:53;;;;;;;6.10;1.90;;;;;;;;;;109257;1256;61201;-47
2023/03/18 10:22:21;;;;;;;4.10;2.10;;;;;;;;;;109297;1254;58266;-46
2023/03/18 10:25:03;;;;;;;6.10;1.80;;;;;;;;;;109185;1251;59547;-46
2023/03/18 10:27:40;;;;;;;1.50;1.30;;;;;;;;;;109129;1254;58375;-47
2023/03/18 10:30:26;;;;;;;9.80;2.20;;;;;;;;;;109328;1253;58470;-45
2023/03/18 10:32:57;;;;;;;1.90;1.60;;;;;;;;;;106238;1260;62172;-47
2023/03/18 10:35:25;;;;;;;4.00;2.00;;;;;;;;;;109298;1252;59176;-48
2023/03/18 10:37:53;;;;;;;2.20;1.20;;;;;;;;;;109329;1251;59412;-46
2023/03/18 10:40:21;;;;;;;2.70;1.30;;;;;;;;;;109306;1253;59356;-45
2023/03/18 10:42:49;;;;;;;4.20;1.80;;;;;;;;;;109172;1254;58805;-47
2023/03/18 10:45:21;;;;;;;3.30;1.20;;;;;;;;;;109130;1251;61339;-46
2023/03/18 10:47:57;;;;;;;3.50;1.50;;;;;;;;;;105641;1257;60405;-48
2023/03/18 10:50:29;;;;;;;3.00;1.40;;;;;;;;;;109080;1254;60464;-47
2023/03/18 10:53:00;;;;;;;5.10;3.20;;;;;;;;;;109289;1253;58212;-46
2023/03/18 10:55:29;;;;;;;3.10;1.90;;;;;;;;;;109320;1254;58360;-46
2023/03/18 10:57:58;;;;;;;4.00;1.20;;;;;;;;;;106083;1254;62857;-48
2023/03/18 11:00:25;;;;;;;3.10;1.90;;;;;;;;;;106180;1259;60373;-46
2023/03/18 11:02:54;;;;;;;3.70;1.10;;;;;;;;;;106646;1256;60733;-45
2023/03/18 11:05:22;;;;;;;2.50;1.40;;;;;;;;;;105610;1257;60450;-46
2023/03/18 11:07:54;;;;;;;5.00;1.20;;;;;;;;;;105619;1254;59477;-48
2023/03/18 11:10:23;;;;;;;1.70;1.40;;;;;;;;;;105644;1254;63637;-46
2023/03/18 11:12:54;;;;;;;1.80;1.70;;;;;;;;;;106392;1254;60467;-49
2023/03/18 11:15:23;;;;;;;2.70;1.20;;;;;;;;;;105494;1257;60966;-47
2023/03/18 11:17:55;;;;;;;3.50;1.20;;;;;;;;;;105459;1254;60517;-49
2023/03/18 11:20:42;;;;;;;3.40;1.70;;;;;;;;;;105421;1254;60446;-50
2023/03/18 11:23:34;;;;;;;2.40;1.50;;;;;;;;;;105562;1257;62420;-47
2023/03/18 11:26:03;;;;;;;1.80;1.20;;;;;;;;;;105587;1254;60555;-46
2023/03/18 11:28:32;;;;;;;1.20;1.10;;;;;;;;;;104985;1254;60858;-46
2023/03/18 11:31:00;;;;;;;3.30;1.30;;;;;;;;;;105050;1257;61173;-47
2023/03/18 11:33:30;;;;;;;1.90;1.40;;;;;;;;;;105187;1255;60478;-47
2023/03/18 11:35:58;;;;;;;1.80;1.40;;;;;;;;;;105299;1254;62116;-48
2023/03/18 11:38:31;;;;;;;1.80;1.70;;;;;;;;;;105704;1254;61752;-47
2023/03/18 11:41:07;;;;;;;1.30;1.20;;;;;;;;;;106439;1254;60742;-47
2023/03/18 11:43:36;;;;;;;5.20;1.50;;;;;;;;;;105040;1257;60341;-47
2023/03/18 11:46:08;;;;;;;2.60;1.50;;;;;;;;;;105388;1254;60444;-45
2023/03/18 11:48:38;;;;;;;2.00;1.50;;;;;;;;;;105200;1252;62331;-48
2023/03/18 11:51:16;;;;;;;1.50;1.40;;;;;;;;;;105417;1257;60454;-45
2023/03/18 11:53:46;;;;;;;2.60;1.10;;;;;;;;;;105480;1257;60334;-47
2023/03/18 11:56:17;;;;;;;1.70;1.60;;;;;;;;;;105702;1256;60401;-46
2023/03/18 11:58:53;;;;;;;2.60;1.60;;;;;;;;;;105588;1254;60415;-47
2023/03/18 12:01:21;;;;;;;3.10;2.30;;;;;;;;;;105496;1254;61132;-45
2023/03/18 12:04:12;;;;;;;3.20;2.20;;;;;;;;;;105936;1257;60517;-46
2023/03/18 12:06:43;;;;;;;2.80;1.50;;;;;;;;;;105323;1257;60814;-46
2023/03/18 12:09:17;;;;;;;3.80;1.90;;;;;;;;;;105605;1256;60405;-46
2023/03/18 12:12:11;;;;;;;2.30;1.50;;;;;;;;;;106169;1257;60347;-46
2023/03/18 12:14:45;;;;;;;4.20;1.40;;;;;;;;;;105790;1254;62145;-47
2023/03/18 12:17:25;;;;;;;3.90;1.70;;;;;;;;;;105897;1256;59785;-47
2023/03/18 12:20:05;;;;;;;3.50;1.90;;;;;;;;;;105599;1254;60537;-47
2023/03/18 12:22:56;;;;;;;3.90;2.50;;;;;;;;;;105598;1255;60357;-48
2023/03/18 12:25:43;;;;;;;5.50;2.80;;;;;;;;;;105939;1254;60466;-49
2023/03/18 12:28:26;;;;;;;6.00;1.90;;;;;;;;;;105231;1257;61998;-51
2023/03/18 12:30:57;;;;;;;1.70;1.30;;;;;;;;;;105805;1257;60452;-46
2023/03/18 12:33:43;;;;;;;3.20;2.10;;;;;;;;;;105788;1257;60754;-45
2023/03/18 12:36:22;;;;;;;2.60;1.60;;;;;;;;;;105056;1254;60397;-46
2023/03/18 12:38:50;;;;;;;;;;;;;;;;;;105479;1251;60335;-47
2023/03/18 12:41:48;;;;;;;3.50;1.60;;;;;;;;;;105836;1250;61816;-46
2023/03/18 12:44:16;;;;;;;1.80;1.20;;;;;;;;;;105346;1261;60660;-49
2023/03/18 12:46:47;;;;;;;2.90;1.80;;;;;;;;;;105816;1251;60549;-46
2023/03/18 12:49:15;;;;;;;2.30;1.10;;;;;;;;;;105913;1251;60525;-47
2023/03/18 12:51:44;;;;;;;5.70;1.50;;;;;;;;;;105882;1251;60415;-48
2023/03/18 12:54:29;;;;;;;4.50;1.50;;;;;;;;;;105859;1250;61902;-48
2023/03/18 12:57:00;;;;;;;6.20;1.50;;;;;;;;;;105711;1254;60347;-44
2023/03/18 12:59:28;;;;;;;3.90;1.50;;;;;;;;;;106773;1252;60643;-50
2023/03/18 13:02:17;;;;;;;7.50;1.40;;;;;;;;;;105886;1250;60411;-47
2023/03/18 13:04:56;;;;;;;1.70;1.10;;;;;;;;;;106530;1254;60418;-48
2023/03/18 13:07:27;;;;;;;5.80;1.20;;;;;;;;;;105854;1251;61966;-50
2023/03/18 13:10:01;;;;;;;3.30;1.20;;;;;;;;;;105823;1253;60418;-46
2023/03/18 13:12:32;;;;;;;4.30;1.00;;;;;;;;;;106238;1251;60509;-49
2023/03/18 13:15:07;;;;;;;1.70;1.30;;;;;;;;;;105664;1256;60523;-49
2023/03/18 13:17:39;;;;;;;1.70;1.00;;;;;;;;;;106108;1251;60462;-48
2023/03/18 13:20:15;;;;;;;2.60;1.00;;;;;;;;;;106422;1253;61978;-46
2023/03/18 13:22:45;;;;;;;3.70;1.10;;;;;;;;;;105721;1253;60513;-49
2023/03/18 13:25:26;;;;;;;4.10;1.30;;;;;;;;;;105800;1253;61690;-48
2023/03/18 13:27:56;;;;;;;2.70;1.50;;;;;;;;;;109336;1249;59458;-47
2023/03/18 13:30:31;;;;;;;2.10;1.10;;;;;;;;;;106134;1253;60425;-50
2023/03/18 13:33:09;;;;;;;2.10;0.90;;;;;;;;;;105837;1252;61966;-45
2023/03/18 13:35:52;;;;;;;1.00;0.90;;;;;;;;;;109611;1251;58109;-45
2023/03/18 13:38:26;;;;;;;1.40;0.90;;;;;;;;;;109552;1251;59498;-47
2023/03/18 13:41:13;;;;;;;1.40;0.90;;;;;;;;;;109622;1250;58805;-46
2023/03/18 13:43:42;;;;;;;3.60;1.00;;;;;;;;;;109589;1253;58395;-49
2023/03/18 13:46:18;;;;;;;0.90;0.70;;;;;;;;;;109612;1253;60748;-46
2023/03/18 13:48:47;;;;;;;1.30;0.90;;;;;;;;;;109662;1250;58321;-46
2023/03/18 13:51:24;;;;;;;0.90;0.80;;;;;;;;;;109637;1250;60719;-47
2023/03/18 13:53:52;;;;;;;2.00;0.70;;;;;;;;;;109663;1250;58676;-46
2023/03/18 13:56:27;;;;;;;1.00;0.70;;;;;;;;;;109609;1251;58226;-49
2023/03/18 13:58:56;;;;;;;0.70;0.60;;;;;;;;;;109412;1251;62267;-46
2023/03/18 14:01:24;;;;;;;1.60;0.70;;;;;;;;;;109546;1250;58110;-46
2023/03/18 14:03:52;;;;;;;1.00;0.60;;;;;;;;;;106041;1252;60411;-49
2023/03/18 14:06:43;;;;;;;1.00;0.60;;;;;;;;;;105843;1254;60705;-48
2023/03/18 14:09:31;;;;;;;1.80;0.60;;;;;;;;;;105799;1253;60404;-48
2023/03/18 14:12:19;;;;;;;1.00;0.70;;;;;;;;;;105839;1252;62112;-48
2023/03/18 14:14:52;;;;;;;2.30;0.80;;;;;;;;;;105755;1254;60511;-48
2023/03/18 14:17:22;;;;;;;1.70;0.70;;;;;;;;;;105724;1254;60473;-49
2023/03/18 14:19:54;;;;;;;0.70;0.60;;;;;;;;;;109319;1254;60180;-48
2023/03/18 14:22:27;;;;;;;1.20;0.70;;;;;;;;;;108746;1251;59898;-49
2023/03/18 14:25:08;;;;;;;1.80;0.80;;;;;;;;;;105695;1250;62208;-48
2023/03/18 14:27:46;;;;;;;1.00;0.70;;;;;;;;;;105655;1251;60465;-51
2023/03/18 14:30:33;;;;;;;1.00;0.80;;;;;;;;;;105706;1251;60425;-49
2023/03/18 14:33:02;;;;;;;1.00;0.50;;;;;;;;;;109577;1251;58367;-45
2023/03/18 14:35:51;;;;;;;2.00;0.70;;;;;;;;;;106269;1251;60451;-46
2023/03/18 14:38:21;;;;;;;0.80;0.60;;;;;;;;;;105888;1254;62617;-47
2023/03/18 14:40:51;;;;;;;4.40;0.60;;;;;;;;;;106773;1250;60363;-47
2023/03/18 14:43:30;;;;;;;1.70;0.80;;;;;;;;;;105886;1251;60880;-48
2023/03/18 14:46:00;;;;;;;0.80;0.50;;;;;;;;;;105832;1254;60437;-47
2023/03/18 14:48:29;;;;;;;3.60;1.60;;;;;;;;;;106035;1254;60330;-50
2023/03/18 14:51:00;;;;;;;45.70;31.40;;;;;;;;;;106031;1251;62051;-47
2023/03/18 14:53:33;;;;;;;11.30;5.00;;;;;;;;;;106174;1253;60345;-48
2023/03/18 14:56:01;;;;;;;5.90;2.30;;;;;;;;;;105988;1252;60555;-45
2023/03/18 14:58:29;;;;;;;5.00;1.60;;;;;;;;;;105965;1251;60535;-46
2023/03/18 15:01:04;;;;;;;3.10;1.10;;;;;;;;;;105476;1250;60397;-48